createdAt,value
2022-10-21T00:01:12.244Z,16.73
2022-10-21T00:03:40.973Z,15.98
2022-10-21T00:06:10.462Z,14.43
2022-10-21T00:08:40.246Z,14.93
2022-10-21T00:11:10.581Z,13.45
2022-10-21T00:13:40.748Z,14.18
2022-10-21T00:16:12.171Z,13.38
2022-10-21T00:18:43.260Z,11.52
2022-10-21T00:21:15.393Z,13.65
2022-10-21T00:23:44.327Z,14.25
2022-10-21T00:26:13.768Z,13.70
2022-10-21T00:28:43.873Z,15.10
2022-10-21T00:31:14.769Z,14.65
2022-10-21T00:33:43.619Z,14.80
2022-10-21T00:36:15.149Z,14.25
2022-10-21T00:38:46.168Z,13.27
2022-10-21T00:41:16.575Z,15.60
2022-10-21T00:43:58.376Z,17.65
2022-10-21T00:46:36.603Z,19.30
2022-10-21T00:49:13.227Z,18.55
2022-10-21T00:51:42.191Z,19.27
2022-10-21T00:54:11.528Z,19.17
2022-10-21T00:56:42.743Z,17.90
2022-10-21T00:59:12.987Z,18.42
2022-10-21T01:01:41.630Z,16.35
2022-10-21T01:04:10.419Z,16.73
2022-10-21T01:06:40.574Z,16.23
2022-10-21T01:09:09.530Z,13.80
2022-10-21T01:11:43.333Z,14.60
2022-10-21T01:14:47.108Z,12.77
2022-10-21T01:17:44.030Z,14.20
2022-10-21T01:20:59.168Z,14.98
2022-10-21T01:24:37.280Z,14.85
2022-10-21T01:27:39.419Z,15.68
2022-10-21T01:30:42.932Z,16.58
2022-10-21T01:33:39.855Z,18.23
2022-10-21T01:36:22.940Z,16.45
2022-10-21T01:39:06.529Z,16.55
2022-10-21T01:41:42.541Z,17.35
2022-10-21T01:44:22.076Z,18.45
2022-10-21T01:46:58.793Z,15.13
2022-10-21T01:49:33.207Z,17.27
2022-10-21T01:52:03.387Z,15.07
2022-10-21T01:54:36.280Z,15.27
2022-10-21T01:57:07.493Z,15.75
2022-10-21T01:59:37.413Z,16.27
2022-10-21T02:02:09.956Z,16.52
2022-10-21T02:04:42.377Z,17.55
2022-10-21T02:07:11.442Z,15.50
2022-10-21T02:09:39.952Z,17.05
2022-10-21T02:12:10.471Z,19.15
2022-10-21T02:14:43.443Z,16.80
2022-10-21T02:17:17.332Z,15.57
2022-10-21T02:19:46.652Z,16.33
2022-10-21T02:22:21.379Z,20.02
2022-10-21T02:24:54.752Z,17.90
2022-10-21T02:27:24.180Z,18.23
2022-10-21T02:29:58.716Z,17.70
2022-10-21T02:32:37.912Z,15.75
2022-10-21T02:35:23.077Z,17.85
2022-10-21T02:38:00.855Z,17.15
2022-10-21T02:40:35.403Z,17.20
2022-10-21T02:43:10.313Z,16.17
2022-10-21T02:45:40.529Z,16.45
2022-10-21T02:48:10.129Z,18.27
2022-10-21T02:50:38.389Z,15.77
2022-10-21T02:53:07.612Z,15.52
2022-10-21T02:55:36.093Z,17.27
2022-10-21T02:58:04.792Z,16.33
2022-10-21T03:00:33.472Z,17.85
2022-10-21T03:03:02.068Z,18.45
2022-10-21T03:08:00.089Z,16.92
2022-10-21T03:10:28.665Z,17.58
2022-10-21T03:12:56.864Z,15.43
2022-10-21T03:15:25.470Z,14.90
2022-10-21T03:17:53.956Z,15.05
2022-10-21T03:20:22.632Z,14.70
2022-10-21T03:22:53.113Z,15.20
2022-10-21T03:25:21.651Z,15.48
2022-10-21T03:27:51.276Z,15.88
2022-10-21T03:30:20.028Z,15.27
2022-10-21T03:32:48.503Z,17.20
2022-10-21T03:35:17.115Z,16.15
2022-10-21T03:37:45.660Z,17.25
2022-10-21T03:40:15.496Z,17.48
2022-10-21T03:42:44.003Z,18.73
2022-10-21T03:45:12.768Z,18.30
2022-10-21T03:47:41.261Z,17.88
2022-10-21T03:50:13.960Z,17.27
2022-10-21T03:52:45.067Z,18.83
2022-10-21T03:55:14.857Z,17.13
2022-10-21T03:57:43.651Z,15.30
2022-10-21T04:00:14.404Z,16.52
2022-10-21T04:02:43.417Z,16.23
2022-10-21T04:05:12.291Z,16.20
2022-10-21T04:07:41.187Z,15.05
2022-10-21T04:10:11.605Z,16.08
2022-10-21T04:12:41.480Z,14.43
2022-10-21T04:15:13.637Z,14.27
2022-10-21T04:17:42.564Z,14.35
2022-10-21T04:20:12.201Z,13.18
2022-10-21T04:22:41.168Z,14.15
2022-10-21T04:25:10.467Z,12.77
2022-10-21T04:27:40.378Z,12.57
2022-10-21T04:30:10.404Z,12.50
2022-10-21T04:32:39.191Z,14.27
2022-10-21T04:35:08.175Z,14.02
2022-10-21T04:37:40.001Z,14.73
2022-10-21T04:40:10.477Z,12.73
2022-10-21T04:42:40.354Z,13.18
2022-10-21T04:45:10.111Z,14.15
2022-10-21T04:47:38.879Z,12.25
2022-10-21T04:50:08.034Z,14.15
2022-10-21T04:52:36.592Z,11.95
2022-10-21T04:55:06.801Z,12.40
2022-10-21T04:57:35.141Z,12.88
2022-10-21T05:00:06.732Z,10.90
2022-10-21T05:02:36.615Z,12.65
2022-10-21T05:05:05.850Z,11.88
2022-10-21T05:07:34.375Z,12.30
2022-10-21T05:10:02.589Z,11.43
2022-10-21T05:12:31.229Z,12.27
2022-10-21T05:15:00.518Z,10.98
2022-10-21T05:17:30.142Z,11.80
2022-10-21T05:19:58.629Z,12.05
2022-10-21T05:22:27.155Z,12.10
2022-10-21T05:24:55.364Z,11.85
2022-10-21T05:27:23.574Z,11.50
2022-10-21T05:29:52.102Z,11.48
2022-10-21T05:32:20.612Z,11.65
2022-10-21T05:34:50.232Z,12.23
2022-10-21T05:37:19.022Z,12.40
2022-10-21T05:39:47.372Z,13.15
2022-10-21T05:42:15.687Z,11.50
2022-10-21T05:44:44.173Z,12.85
2022-10-21T05:47:12.711Z,13.50
2022-10-21T05:49:41.209Z,12.77
2022-10-21T05:52:10.787Z,12.82
2022-10-21T05:54:39.034Z,13.25
2022-10-21T05:57:07.536Z,11.43
2022-10-21T05:59:35.735Z,13.75
2022-10-21T06:02:04.230Z,13.52
2022-10-21T06:04:37.792Z,14.57
2022-10-21T06:07:07.696Z,14.18
2022-10-21T06:09:37.688Z,15.05
2022-10-21T06:12:07.447Z,14.77
2022-10-21T06:14:36.582Z,12.85
2022-10-21T06:17:05.632Z,14.45
2022-10-21T06:19:34.076Z,16.60
2022-10-21T06:22:02.792Z,15.73
2022-10-21T06:24:31.327Z,14.88
2022-10-21T06:27:00.940Z,13.52
2022-10-21T06:29:29.571Z,13.32
2022-10-21T06:31:58.059Z,14.13
2022-10-21T06:34:26.676Z,11.95
2022-10-21T06:36:55.177Z,12.80
2022-10-21T06:39:23.672Z,12.27
2022-10-21T06:41:52.201Z,11.20
2022-10-21T06:44:41.717Z,12.57
2022-10-21T06:47:10.246Z,11.93
2022-10-21T06:49:38.720Z,11.77
2022-10-21T06:52:07.284Z,11.45
2022-10-21T06:54:35.820Z,12.43
2022-10-21T06:57:05.314Z,11.57
2022-10-21T06:59:33.916Z,12.27
2022-10-21T07:02:03.480Z,13.98
2022-10-21T07:04:31.995Z,14.23
2022-10-21T07:07:00.911Z,14.50
2022-10-21T07:09:30.812Z,14.68
2022-10-21T07:12:01.314Z,15.68
2022-10-21T07:14:29.934Z,14.73
2022-10-21T07:16:58.464Z,17.52
2022-10-21T07:19:28.513Z,16.20
2022-10-21T07:21:56.713Z,15.05
2022-10-21T07:24:25.309Z,16.98
2022-10-21T07:26:53.908Z,14.93
2022-10-21T07:29:22.489Z,14.88
2022-10-21T07:31:51.073Z,15.55
2022-10-21T07:34:19.543Z,13.88
2022-10-21T07:36:52.730Z,12.35
2022-10-21T07:39:25.472Z,14.02
2022-10-21T07:41:56.549Z,12.98
2022-10-21T07:44:26.762Z,13.13
2022-10-21T07:46:55.611Z,13.55
2022-10-21T07:49:24.962Z,14.23
2022-10-21T07:51:54.519Z,15.35
2022-10-21T07:54:23.600Z,13.52
2022-10-21T07:56:53.093Z,12.98
2022-10-21T07:59:23.474Z,13.10
2022-10-21T08:01:53.104Z,12.93
2022-10-21T08:04:24.894Z,13.82
2022-10-21T08:06:54.532Z,13.73
2022-10-21T08:09:23.483Z,14.43
2022-10-21T08:11:52.258Z,13.50
2022-10-21T08:14:20.772Z,15.32
2022-10-21T08:16:53.750Z,15.10
2022-10-21T08:19:29.417Z,14.60
2022-10-21T08:22:00.811Z,16.90
2022-10-21T08:24:29.442Z,15.27
2022-10-21T08:26:58.008Z,14.77
2022-10-21T08:29:26.932Z,17.30
2022-10-21T08:31:55.408Z,13.65
2022-10-21T08:34:24.575Z,14.05
2022-10-21T08:36:52.765Z,14.27
2022-10-21T08:39:24.909Z,12.60
2022-10-21T08:42:18.434Z,12.18
2022-10-21T08:44:54.965Z,13.63
2022-10-21T08:47:33.159Z,15.90
2022-10-21T08:50:06.433Z,14.57
2022-10-21T08:52:44.628Z,13.05
2022-10-21T08:55:24.053Z,13.93
2022-10-21T08:57:54.642Z,14.38
2022-10-21T09:00:25.914Z,14.85
2022-10-21T09:03:09.007Z,13.13
2022-10-21T09:06:14.982Z,14.40
2022-10-21T09:11:44.070Z,14.55
2022-10-21T09:14:58.714Z,15.80
2022-10-21T09:17:57.445Z,15.68
2022-10-21T09:20:45.773Z,16.90
2022-10-21T09:23:44.737Z,16.73
2022-10-21T09:26:34.504Z,15.13
2022-10-21T09:29:16.687Z,14.82
2022-10-21T09:31:47.791Z,14.50
2022-10-21T09:36:54.717Z,12.68
2022-10-21T09:39:33.705Z,12.65
2022-10-21T09:42:07.349Z,12.57
2022-10-21T09:44:47.128Z,12.10
2022-10-21T09:47:21.795Z,9.75
2022-10-21T09:50:06.909Z,6.50
2022-10-21T09:52:38.905Z,4.85
2022-10-21T09:55:14.468Z,3.47
2022-10-21T09:57:52.523Z,2.33
2022-10-21T10:00:21.123Z,4.32
2022-10-21T10:02:50.326Z,2.00
2022-10-21T10:05:42.167Z,2.75
2022-10-21T10:08:40.142Z,2.22
2022-10-21T10:11:18.835Z,2.58
2022-10-21T10:13:50.937Z,2.33
2022-10-21T10:16:27.545Z,2.58
2022-10-21T10:19:17.510Z,2.60
2022-10-21T10:21:48.180Z,3.38
2022-10-21T10:24:20.109Z,2.40
2022-10-21T10:26:49.788Z,2.60
2022-10-21T10:29:27.725Z,2.25
2022-10-21T10:31:59.430Z,2.47
2022-10-21T10:34:34.561Z,2.50
2022-10-21T10:37:09.072Z,2.88
2022-10-21T10:39:40.840Z,2.78
2022-10-21T10:42:09.500Z,2.67
2022-10-21T10:44:44.524Z,3.22
2022-10-21T10:47:21.800Z,2.92
2022-10-21T10:49:51.639Z,2.83
2022-10-21T10:52:24.169Z,3.75
2022-10-21T10:55:19.352Z,3.58
2022-10-21T10:58:06.090Z,3.72
2022-10-21T11:00:45.840Z,3.47
2022-10-21T11:03:26.074Z,3.13
2022-10-21T11:06:02.348Z,2.95
2022-10-21T11:08:37.223Z,3.33
2022-10-21T11:11:11.827Z,3.85
2022-10-21T11:13:42.305Z,3.00
2022-10-21T11:16:59.013Z,3.83
2022-10-21T11:19:40.558Z,3.40
2022-10-21T11:22:16.340Z,3.00
2022-10-21T11:25:12.409Z,3.05
2022-10-21T11:28:04.106Z,3.28
2022-10-21T11:30:47.827Z,3.47
2022-10-21T11:33:29.108Z,4.72
2022-10-21T11:36:08.010Z,4.30
2022-10-21T11:39:31.734Z,4.03
2022-10-21T11:42:10.040Z,4.68
2022-10-21T11:44:53.916Z,4.28
2022-10-21T11:47:29.600Z,5.45
2022-10-21T11:50:13.004Z,5.70
2022-10-21T11:52:57.688Z,5.90
2022-10-21T11:55:39.769Z,3.63
2022-10-21T11:58:33.744Z,3.58
2022-10-21T12:01:25.412Z,4.35
2022-10-21T12:04:22.459Z,1.40
2022-10-21T12:07:11.018Z,1.13
2022-10-21T12:09:46.324Z,1.25
2022-10-21T12:12:18.668Z,1.23
2022-10-21T12:14:53.767Z,1.45
2022-10-21T12:17:23.855Z,0.93
2022-10-21T12:19:59.068Z,1.40
2022-10-21T12:22:33.069Z,0.90
2022-10-21T12:25:20.829Z,1.40
2022-10-21T12:27:55.930Z,1.20
2022-10-21T12:30:33.783Z,0.90
2022-10-21T12:33:16.890Z,1.30
2022-10-21T12:35:53.175Z,1.20
2022-10-21T12:38:43.785Z,1.30
2022-10-21T12:41:34.218Z,1.90
2022-10-21T12:44:24.864Z,1.35
2022-10-21T12:46:56.778Z,2.58
2022-10-21T12:49:36.419Z,1.20
2022-10-21T12:52:13.862Z,0.90
2022-10-21T12:54:56.880Z,1.60
2022-10-21T12:57:29.689Z,0.93
2022-10-21T13:00:51.054Z,1.20
2022-10-21T13:03:22.820Z,0.70
2022-10-21T13:06:07.039Z,0.80
2022-10-21T13:08:51.653Z,0.80
2022-10-21T13:11:40.470Z,0.88
2022-10-21T13:14:35.345Z,0.60
2022-10-21T13:17:48.932Z,0.80
2022-10-21T13:20:47.033Z,0.68
2022-10-21T13:23:37.863Z,0.50
2022-10-21T13:26:19.979Z,0.50
2022-10-21T13:29:16.550Z,0.80
2022-10-21T13:31:45.372Z,0.30
2022-10-21T13:34:29.417Z,0.50
2022-10-21T13:36:58.657Z,0.60
2022-10-21T13:39:34.501Z,0.80
2022-10-21T13:42:06.529Z,0.70
2022-10-21T13:44:39.744Z,0.60
2022-10-21T13:47:30.627Z,0.60
2022-10-21T13:50:11.661Z,1.83
2022-10-21T13:52:43.238Z,1.00
2022-10-21T13:55:20.605Z,1.13
2022-10-21T13:57:51.357Z,1.48
2022-10-21T14:00:25.173Z,1.10
2022-10-21T14:03:00.631Z,1.27
2022-10-21T14:05:37.793Z,1.40
2022-10-21T14:08:18.274Z,1.75
2022-10-21T14:10:48.443Z,1.73
2022-10-21T14:13:20.583Z,1.80
2022-10-21T14:15:50.811Z,1.67
2022-10-21T14:18:34.925Z,1.83
2022-10-21T14:21:07.423Z,1.90
2022-10-21T14:23:36.425Z,1.92
2022-10-21T14:26:09.705Z,2.65
2022-10-21T14:28:38.937Z,2.08
2022-10-21T14:31:12.411Z,2.20
2022-10-21T14:33:43.345Z,2.42
2022-10-21T14:36:20.325Z,2.53
2022-10-21T14:39:00.402Z,3.35
2022-10-21T14:41:35.504Z,3.05
2022-10-21T14:44:14.486Z,2.90
2022-10-21T14:46:47.275Z,2.53
2022-10-21T14:49:26.489Z,1.98
2022-10-21T14:52:01.106Z,2.80
2022-10-21T14:54:41.764Z,4.32
2022-10-21T14:57:33.199Z,1.95
2022-10-21T15:00:03.370Z,2.28
2022-10-21T15:02:37.156Z,1.95
2022-10-21T15:05:26.656Z,2.23
2022-10-21T15:08:17.014Z,2.20
2022-10-21T15:10:45.450Z,1.67
2022-10-21T15:13:18.280Z,1.88
2022-10-21T15:15:53.223Z,2.00
2022-10-21T15:18:29.245Z,2.30
2022-10-21T15:21:00.204Z,2.67
2022-10-21T15:23:32.967Z,2.03
2022-10-21T15:26:06.003Z,2.22
2022-10-21T15:28:36.499Z,2.20
2022-10-21T15:31:09.241Z,1.88
2022-10-21T15:33:38.864Z,2.22
2022-10-21T15:36:09.819Z,1.92
2022-10-21T15:38:44.501Z,2.03
2022-10-21T15:41:16.218Z,2.00
2022-10-21T15:43:58.267Z,2.05
2022-10-21T15:46:27.173Z,3.08
2022-10-21T15:48:57.985Z,1.55
2022-10-21T15:51:26.384Z,1.73
2022-10-21T15:53:54.582Z,2.70
2022-10-21T15:56:24.277Z,1.98
2022-10-21T15:58:52.460Z,2.25
2022-10-21T16:01:21.141Z,1.52
2022-10-21T16:03:49.435Z,1.45
2022-10-21T16:06:21.715Z,1.50
2022-10-21T16:08:51.667Z,1.50
2022-10-21T16:11:34.642Z,1.88
2022-10-21T16:14:10.198Z,2.20
2022-10-21T16:16:41.723Z,1.90
2022-10-21T16:19:10.901Z,1.95
2022-10-21T16:21:41.085Z,2.17
2022-10-21T16:24:09.559Z,1.88
2022-10-21T16:26:42.413Z,1.65
2022-10-21T16:29:13.848Z,1.60
2022-10-21T16:31:42.084Z,2.25
2022-10-21T16:34:10.299Z,1.60
2022-10-21T16:36:40.243Z,1.83
2022-10-21T16:39:14.786Z,1.80
2022-10-21T16:41:43.156Z,1.00
2022-10-21T16:44:11.724Z,1.75
2022-10-21T16:46:42.682Z,1.25
2022-10-21T16:49:15.320Z,1.13
2022-10-21T16:51:46.876Z,1.98
2022-10-21T16:54:15.744Z,1.20
2022-10-21T16:56:44.284Z,2.00
2022-10-21T16:59:12.868Z,2.13
2022-10-21T17:01:41.588Z,1.90
2022-10-21T17:04:14.210Z,1.77
2022-10-21T17:06:44.263Z,1.33
2022-10-21T17:09:12.490Z,1.60
2022-10-21T17:11:42.499Z,1.77
2022-10-21T17:14:16.102Z,1.30
2022-10-21T17:16:45.239Z,1.85
2022-10-21T17:19:13.943Z,2.03
2022-10-21T17:21:44.055Z,1.60
2022-10-21T17:24:17.595Z,1.50
2022-10-21T17:26:46.361Z,1.77
2022-10-21T17:29:15.536Z,2.38
2022-10-21T17:31:44.713Z,1.23
2022-10-21T17:34:26.840Z,2.22
2022-10-21T17:36:57.035Z,1.50
2022-10-21T17:39:25.727Z,1.52
2022-10-21T17:41:54.018Z,0.98
2022-10-21T17:44:22.860Z,1.60
2022-10-21T17:46:54.350Z,1.70
2022-10-21T17:49:23.255Z,1.48
2022-10-21T17:51:52.109Z,2.08
2022-10-21T17:54:26.100Z,1.83
2022-10-21T17:56:57.820Z,1.58
2022-10-21T17:59:26.704Z,1.77
2022-10-21T18:01:54.931Z,1.55
2022-10-21T18:04:23.157Z,1.40
2022-10-21T18:06:51.351Z,1.48
2022-10-21T18:09:20.984Z,1.80
2022-10-21T18:11:49.665Z,1.95
2022-10-21T18:14:18.196Z,1.83
2022-10-21T18:16:46.781Z,2.13
2022-10-21T18:19:15.324Z,2.38
2022-10-21T18:21:43.924Z,1.92
2022-10-21T18:24:12.799Z,1.58
2022-10-21T18:26:42.594Z,1.80
2022-10-21T18:29:10.808Z,2.47
2022-10-21T18:31:39.975Z,1.60
2022-10-21T18:34:09.331Z,1.55
2022-10-21T18:36:37.984Z,1.90
2022-10-21T18:39:06.940Z,1.83
2022-10-21T18:41:36.160Z,2.22
2022-10-21T18:44:08.950Z,1.90
2022-10-21T18:46:39.884Z,1.70
2022-10-21T18:49:11.716Z,1.67
2022-10-21T18:51:40.240Z,1.42
2022-10-21T18:54:08.768Z,2.28
2022-10-21T18:56:37.038Z,3.45
2022-10-21T18:59:07.018Z,2.25
2022-10-21T19:01:35.335Z,2.22
2022-10-21T19:04:03.917Z,1.27
2022-10-21T19:06:39.621Z,1.48
2022-10-21T19:09:12.954Z,1.80
2022-10-21T19:11:42.293Z,1.63
2022-10-21T19:14:14.351Z,1.55
2022-10-21T19:16:43.696Z,2.03
2022-10-21T19:19:13.037Z,1.20
2022-10-21T19:21:41.968Z,1.42
2022-10-21T19:24:11.646Z,2.00
2022-10-21T19:26:42.155Z,2.40
2022-10-21T19:29:16.168Z,1.85
2022-10-21T19:34:20.992Z,1.70
2022-10-21T19:36:49.376Z,2.03
2022-10-21T19:39:17.973Z,1.88
2022-10-21T19:41:46.340Z,1.85
2022-10-21T19:44:16.053Z,2.92
2022-10-21T19:46:44.620Z,1.88
2022-10-21T19:49:15.328Z,1.70
2022-10-21T19:51:43.896Z,1.90
2022-10-21T19:54:13.882Z,1.77
2022-10-21T19:56:42.615Z,2.13
2022-10-21T19:59:11.847Z,1.95
2022-10-21T20:01:41.548Z,2.20
2022-10-21T20:04:09.930Z,3.25
2022-10-21T20:06:39.388Z,2.35
2022-10-21T20:09:10.485Z,2.13
2022-10-21T20:11:40.444Z,1.50
2022-10-21T20:14:09.213Z,1.63
2022-10-21T20:16:42.315Z,1.63
2022-10-21T20:19:13.314Z,1.40
2022-10-21T20:21:42.935Z,1.80
2022-10-21T20:24:14.220Z,1.45
2022-10-21T20:26:44.391Z,1.45
2022-10-21T20:29:13.218Z,2.00
2022-10-21T20:31:42.781Z,1.77
2022-10-21T20:34:13.583Z,2.33
2022-10-21T20:36:42.148Z,1.80
2022-10-21T20:39:11.316Z,1.73
2022-10-21T20:41:40.174Z,1.60
2022-10-21T20:44:12.225Z,1.55
2022-10-21T20:46:42.172Z,1.73
2022-10-21T20:49:11.236Z,2.75
2022-10-21T20:51:43.064Z,3.00
2022-10-21T20:54:15.072Z,2.80
2022-10-21T20:56:44.484Z,2.10
2022-10-21T20:59:15.839Z,2.53
2022-10-21T21:01:47.652Z,1.98
2022-10-21T21:04:20.554Z,2.10
2022-10-21T21:06:50.763Z,1.80
2022-10-21T21:09:43.701Z,2.10
2022-10-21T21:12:10.110Z,1.30
2022-10-21T21:14:38.608Z,1.90
2022-10-21T21:17:08.288Z,1.58
2022-10-21T21:19:36.551Z,2.00
2022-10-21T21:22:05.076Z,1.77
2022-10-21T21:24:33.546Z,1.73
2022-10-21T21:27:02.056Z,1.60
2022-10-21T21:29:30.550Z,1.63
2022-10-21T21:31:59.307Z,1.88
2022-10-21T21:34:29.103Z,2.08
2022-10-21T21:36:57.614Z,2.03
2022-10-21T21:39:26.226Z,2.33
2022-10-21T21:41:54.979Z,2.15
2022-10-21T21:44:23.444Z,1.73
2022-10-21T21:46:51.916Z,2.13
2022-10-21T21:49:20.435Z,1.65
2022-10-21T21:51:49.956Z,1.95
2022-10-21T21:54:18.350Z,1.92
2022-10-21T21:56:46.942Z,2.50
2022-10-21T21:59:15.487Z,2.17
2022-10-21T22:01:44.120Z,2.30
2022-10-21T22:04:12.658Z,2.55
2022-10-21T22:06:40.928Z,2.38
2022-10-21T22:09:11.956Z,3.58
2022-10-21T22:11:40.508Z,2.90
2022-10-21T22:14:09.054Z,2.33
2022-10-21T22:16:37.912Z,2.88
2022-10-21T22:19:06.486Z,2.38
2022-10-21T22:21:34.815Z,2.58
2022-10-21T22:24:03.338Z,2.72
2022-10-21T22:26:32.964Z,2.78
2022-10-21T22:29:01.466Z,2.38
2022-10-21T22:31:30.827Z,2.88
2022-10-21T22:34:01.252Z,2.53
2022-10-21T22:36:30.009Z,2.65
2022-10-21T22:38:58.880Z,3.40
2022-10-21T22:41:27.847Z,3.80
2022-10-21T22:43:57.395Z,3.00
2022-10-21T22:46:40.947Z,3.05
2022-10-21T22:49:10.655Z,3.20
2022-10-21T22:51:39.215Z,2.88
2022-10-21T22:54:19.256Z,2.38
2022-10-21T22:56:52.832Z,2.63
2022-10-21T22:59:22.569Z,1.60
2022-10-21T23:01:50.809Z,2.25
2022-10-21T23:04:19.050Z,2.08
2022-10-21T23:06:47.313Z,2.53
2022-10-21T23:09:15.868Z,1.73
2022-10-21T23:11:44.238Z,2.60
2022-10-21T23:14:12.732Z,1.77
2022-10-21T23:16:42.367Z,1.98
2022-10-21T23:21:42.288Z,1.90
2022-10-21T23:24:11.096Z,2.05
2022-10-21T23:26:39.365Z,2.38
2022-10-21T23:29:07.927Z,2.80
2022-10-21T23:31:36.210Z,2.55
2022-10-21T23:34:06.096Z,2.80
2022-10-21T23:36:35.441Z,3.15
2022-10-21T23:39:04.511Z,2.80
2022-10-21T23:41:32.723Z,2.92
2022-10-21T23:44:01.404Z,2.42
2022-10-21T23:46:30.043Z,2.70
2022-10-21T23:48:58.551Z,2.83
2022-10-21T23:51:28.187Z,2.92
2022-10-21T23:53:56.891Z,2.60
2022-10-21T23:56:25.085Z,2.67
2022-10-21T23:58:53.559Z,2.75
